Airfield :
LOGIN :

Register | Disclaimer

   EN    FR    IT 

 










Legend :    VFR   Marginal VFR   IFR   Intensive IFR   Very Intensive IFR
Visi :
Ceiling :
>= 8 km
>= 3000ft
5 to 8 km
1000 to 3000 ft
1500m to 5 km
500 to 1000 ft
800 to 1500m
200 to 500 ft
< 800m
< 200 ft
Symbols :   Thunderstorms  Fog  Heavy snow  Heavy precipitations  Wind > 20 kt
SIGMETs :     Misc.  Thunderstorms  Icing  Turbulence  Mountain Waves  Volcanic Ashes






- Airport Elevation : 681 ft
- IATA code : LBA


EGNM - Leeds Bradford

CURRENT METAR :
  • 292350Z 28014KT 9999 FEW009 BKN011 10/09 Q1006

EXPIRED METARs :
  • 292320Z 28013KT 9999 SCT010 11/09 Q1006
  • 292250Z 28013KT 9999 SCT012 11/09 Q1007
  • 292220Z 28013KT 9999 FEW018 11/09 Q1007
  • 292150Z 27016KT 9999 FEW018 11/09 Q1007
  • 292120Z 27014KT 9999 FEW018 SCT035 11/10 Q1007
  • 292050Z 27013KT 9999 SCT040 12/10 Q1006
  • 292020Z 28014KT 9999 SCT010 SCT038 12/10 Q1006
  • 291950Z 28014KT 9999 SCT010 SCT038 12/11 Q1006
  • 291920Z 27015KT 9999 SCT010 SCT038 12/11 Q1006

TAF TAF EGNM
Valid from the 30 at 00:00 until the 31 at 00:00 UTC


292301Z 3000/3024 28011KT 9999 FEW012 SCT025
PROB30
TEMPO 3000/3004 BKN012
TEMPO 3003/3008 6000 RA SHRA BKN007
BECMG 3005/3008 34010KT
PROB30
TEMPO 3008/3018 6000 SHRA
PROB40
TEMPO 3011/3018 35015G25KT
ATIS : +44 113 250 9696 (x2489)



MET'MAP, your aeronautical weather chart ! - Copyright ORBIFLY December 2007 - Disclaimer

ORBIFLY MET'MAP TEAM :

Programming & Development : Alexandra Zaïnal
Original concept : Baudouin d'Aumeries
Technical & hardware support : Manuel Goepfert
Assistance : Marc-Olivier Méhu




SOURCES & CREDITS :

   NOAA